Terminal Aerodrome Forecast
Issued by NWS

Home | Current Version | Previous Version | Graphics & Text | Print | Product List | Glossary On
Versions: 1 2 3 4 5 6 7 8 9 10 11 12 13 14
580
FTUS43 KFGF 202032 AAC
TAFBJI
TAF AMD
KBJI 202032Z 2021/2118 17007KT P6SM BKN010
      TEMPO 2021/2023 SCT010
     FM202300 VRB06KT P6SM SCT080
     FM211300 29004KT P6SM SCT200=

USA.gov is the U.S. government's official web portal to all federal, state and local government web resources and services.